sensor_id;sensor_type;location;lat;lon;timestamp;P1;durP1;ratioP1;P2;durP2;ratioP2
57697;SDS011;43531;52.152;6.366;2022-11-15T00:00:18;20.25;;;12.63;;
57697;SDS011;43531;52.152;6.366;2022-11-15T00:01:09;17.50;;;12.95;;
57697;SDS011;43531;52.152;6.366;2022-11-15T00:02:01;19.45;;;12.18;;
57697;SDS011;43531;52.152;6.366;2022-11-15T00:02:54;18.58;;;12.55;;
57697;SDS011;43531;52.152;6.366;2022-11-15T00:03:44;19.42;;;13.32;;
57697;SDS011;43531;52.152;6.366;2022-11-15T00:04:36;20.92;;;13.88;;
57697;SDS011;43531;52.152;6.366;2022-11-15T00:05:26;24.38;;;14.75;;
57697;SDS011;43531;52.152;6.366;2022-11-15T00:06:15;18.77;;;13.35;;
57697;SDS011;43531;52.152;6.366;2022-11-15T00:07:05;19.25;;;14.48;;
57697;SDS011;43531;52.152;6.366;2022-11-15T00:07:56;20.67;;;13.55;;
57697;SDS011;43531;52.152;6.366;2022-11-15T00:08:46;21.35;;;14.05;;
57697;SDS011;43531;52.152;6.366;2022-11-15T00:09:36;21.42;;;12.75;;
57697;SDS011;43531;52.152;6.366;2022-11-15T00:10:33;21.60;;;14.43;;
57697;SDS011;43531;52.152;6.366;2022-11-15T00:11:23;19.38;;;13.98;;
57697;SDS011;43531;52.152;6.366;2022-11-15T00:12:13;18.98;;;12.68;;
57697;SDS011;43531;52.152;6.366;2022-11-15T00:13:04;26.92;;;14.90;;
57697;SDS011;43531;52.152;6.366;2022-11-15T00:13:58;22.25;;;12.63;;
57697;SDS011;43531;52.152;6.366;2022-11-15T00:14:48;22.40;;;15.35;;
57697;SDS011;43531;52.152;6.366;2022-11-15T00:15:38;21.13;;;13.40;;
57697;SDS011;43531;52.152;6.366;2022-11-15T00:17:19;20.77;;;14.27;;
57697;SDS011;43531;52.152;6.366;2022-11-15T00:18:12;22.42;;;14.05;;
57697;SDS011;43531;52.152;6.366;2022-11-15T00:19:03;21.17;;;14.45;;
57697;SDS011;43531;52.152;6.366;2022-11-15T00:19:53;22.80;;;14.57;;
57697;SDS011;43531;52.152;6.366;2022-11-15T00:20:43;21.38;;;14.90;;
57697;SDS011;43531;52.152;6.366;2022-11-15T00:21:33;23.58;;;14.65;;
57697;SDS011;43531;52.152;6.366;2022-11-15T00:22:23;24.40;;;13.65;;
57697;SDS011;43531;52.152;6.366;2022-11-15T00:23:13;25.85;;;15.10;;
57697;SDS011;43531;52.152;6.366;2022-11-15T00:24:03;23.73;;;15.15;;
57697;SDS011;43531;52.152;6.366;2022-11-15T00:24:53;25.02;;;15.27;;
57697;SDS011;43531;52.152;6.366;2022-11-15T00:25:43;24.77;;;15.88;;
57697;SDS011;43531;52.152;6.366;2022-11-15T00:26:33;22.08;;;15.48;;
57697;SDS011;43531;52.152;6.366;2022-11-15T00:27:23;20.73;;;14.13;;
57697;SDS011;43531;52.152;6.366;2022-11-15T00:28:14;28.65;;;15.63;;
57697;SDS011;43531;52.152;6.366;2022-11-15T00:29:04;26.50;;;14.63;;
57697;SDS011;43531;52.152;6.366;2022-11-15T00:29:54;23.80;;;14.90;;
57697;SDS011;43531;52.152;6.366;2022-11-15T00:30:43;26.88;;;14.75;;
57697;SDS011;43531;52.152;6.366;2022-11-15T00:31:33;28.08;;;14.65;;
57697;SDS011;43531;52.152;6.366;2022-11-15T00:32:24;25.05;;;15.30;;
57697;SDS011;43531;52.152;6.366;2022-11-15T00:33:14;26.90;;;15.73;;
57697;SDS011;43531;52.152;6.366;2022-11-15T00:34:12;31.30;;;16.50;;
57697;SDS011;43531;52.152;6.366;2022-11-15T00:35:02;19.95;;;13.25;;
57697;SDS011;43531;52.152;6.366;2022-11-15T00:35:52;28.67;;;14.98;;
57697;SDS011;43531;52.152;6.366;2022-11-15T00:36:42;26.35;;;15.55;;
57697;SDS011;43531;52.152;6.366;2022-11-15T00:37:32;29.42;;;15.57;;
57697;SDS011;43531;52.152;6.366;2022-11-15T00:38:22;25.10;;;15.73;;
57697;SDS011;43531;52.152;6.366;2022-11-15T00:39:11;26.73;;;15.60;;
57697;SDS011;43531;52.152;6.366;2022-11-15T00:40:01;25.42;;;14.70;;
57697;SDS011;43531;52.152;6.366;2022-11-15T00:40:52;23.55;;;15.85;;
57697;SDS011;43531;52.152;6.366;2022-11-15T00:41:42;25.60;;;15.07;;
57697;SDS011;43531;52.152;6.366;2022-11-15T00:42:31;33.88;;;17.15;;
57697;SDS011;43531;52.152;6.366;2022-11-15T00:43:22;27.83;;;15.75;;
57697;SDS011;43531;52.152;6.366;2022-11-15T00:44:12;30.40;;;16.95;;
57697;SDS011;43531;52.152;6.366;2022-11-15T00:45:02;31.15;;;16.27;;
57697;SDS011;43531;52.152;6.366;2022-11-15T00:45:52;23.23;;;14.77;;
57697;SDS011;43531;52.152;6.366;2022-11-15T00:46:43;25.70;;;14.40;;
57697;SDS011;43531;52.152;6.366;2022-11-15T00:47:33;31.85;;;19.27;;
57697;SDS011;43531;52.152;6.366;2022-11-15T00:48:23;31.08;;;15.88;;
57697;SDS011;43531;52.152;6.366;2022-11-15T00:49:13;23.88;;;15.63;;
57697;SDS011;43531;52.152;6.366;2022-11-15T00:50:03;28.63;;;15.52;;
57697;SDS011;43531;52.152;6.366;2022-11-15T00:50:54;26.13;;;16.58;;
57697;SDS011;43531;52.152;6.366;2022-11-15T00:51:44;31.25;;;17.73;;
57697;SDS011;43531;52.152;6.366;2022-11-15T00:52:34;29.67;;;16.83;;
57697;SDS011;43531;52.152;6.366;2022-11-15T00:53:24;30.50;;;17.30;;
57697;SDS011;43531;52.152;6.366;2022-11-15T00:54:14;32.10;;;16.38;;
57697;SDS011;43531;52.152;6.366;2022-11-15T00:55:04;33.35;;;15.40;;
57697;SDS011;43531;52.152;6.366;2022-11-15T00:55:54;27.98;;;16.05;;
57697;SDS011;43531;52.152;6.366;2022-11-15T00:56:44;25.38;;;14.90;;
57697;SDS011;43531;52.152;6.366;2022-11-15T00:57:34;28.60;;;15.82;;
57697;SDS011;43531;52.152;6.366;2022-11-15T00:58:24;25.45;;;15.57;;
57697;SDS011;43531;52.152;6.366;2022-11-15T00:59:14;23.63;;;14.65;;
57697;SDS011;43531;52.152;6.366;2022-11-15T01:00:04;31.10;;;16.02;;
57697;SDS011;43531;52.152;6.366;2022-11-15T01:00:55;25.83;;;16.65;;
57697;SDS011;43531;52.152;6.366;2022-11-15T01:01:45;30.88;;;16.55;;
57697;SDS011;43531;52.152;6.366;2022-11-15T01:02:35;29.85;;;16.08;;
57697;SDS011;43531;52.152;6.366;2022-11-15T01:03:25;27.60;;;16.90;;
57697;SDS011;43531;52.152;6.366;2022-11-15T01:04:15;33.00;;;17.30;;
57697;SDS011;43531;52.152;6.366;2022-11-15T01:05:05;28.27;;;17.50;;
57697;SDS011;43531;52.152;6.366;2022-11-15T01:05:58;34.78;;;17.15;;
57697;SDS011;43531;52.152;6.366;2022-11-15T01:06:49;27.55;;;16.90;;
57697;SDS011;43531;52.152;6.366;2022-11-15T01:07:39;26.38;;;17.50;;
57697;SDS011;43531;52.152;6.366;2022-11-15T01:08:29;27.92;;;16.55;;
57697;SDS011;43531;52.152;6.366;2022-11-15T01:09:19;31.60;;;16.98;;
57697;SDS011;43531;52.152;6.366;2022-11-15T01:10:09;33.88;;;17.23;;
57697;SDS011;43531;52.152;6.366;2022-11-15T01:11:03;30.35;;;16.40;;
57697;SDS011;43531;52.152;6.366;2022-11-15T01:11:54;25.55;;;15.00;;
57697;SDS011;43531;52.152;6.366;2022-11-15T01:12:44;24.73;;;15.95;;
57697;SDS011;43531;52.152;6.366;2022-11-15T01:13:37;33.83;;;17.23;;
57697;SDS011;43531;52.152;6.366;2022-11-15T01:14:28;32.53;;;17.80;;
57697;SDS011;43531;52.152;6.366;2022-11-15T01:15:18;27.73;;;15.73;;
57697;SDS011;43531;52.152;6.366;2022-11-15T01:16:09;26.23;;;14.77;;
57697;SDS011;43531;52.152;6.366;2022-11-15T01:17:01;25.23;;;17.17;;
57697;SDS011;43531;52.152;6.366;2022-11-15T01:17:51;26.70;;;16.88;;
57697;SDS011;43531;52.152;6.366;2022-11-15T01:18:40;28.88;;;18.02;;
57697;SDS011;43531;52.152;6.366;2022-11-15T01:19:31;25.85;;;16.02;;
57697;SDS011;43531;52.152;6.366;2022-11-15T01:20:20;31.48;;;17.23;;
57697;SDS011;43531;52.152;6.366;2022-11-15T01:21:14;27.27;;;15.93;;
57697;SDS011;43531;52.152;6.366;2022-11-15T01:22:06;28.75;;;16.05;;
57697;SDS011;43531;52.152;6.366;2022-11-15T01:22:56;27.40;;;16.77;;
57697;SDS011;43531;52.152;6.366;2022-11-15T01:23:46;31.77;;;17.15;;
57697;SDS011;43531;52.152;6.366;2022-11-15T01:24:36;28.30;;;17.90;;
57697;SDS011;43531;52.152;6.366;2022-11-15T01:25:26;24.42;;;15.00;;
57697;SDS011;43531;52.152;6.366;2022-11-15T01:26:16;26.38;;;17.42;;
57697;SDS011;43531;52.152;6.366;2022-11-15T01:27:07;26.95;;;16.33;;
57697;SDS011;43531;52.152;6.366;2022-11-15T01:27:57;37.00;;;18.27;;
57697;SDS011;43531;52.152;6.366;2022-11-15T01:28:46;28.40;;;16.92;;
57697;SDS011;43531;52.152;6.366;2022-11-15T01:29:36;31.98;;;16.83;;
57697;SDS011;43531;52.152;6.366;2022-11-15T01:30:26;28.13;;;18.17;;
57697;SDS011;43531;52.152;6.366;2022-11-15T01:31:20;29.02;;;19.08;;
57697;SDS011;43531;52.152;6.366;2022-11-15T01:32:10;30.65;;;16.33;;
57697;SDS011;43531;52.152;6.366;2022-11-15T01:33:00;29.70;;;18.92;;
57697;SDS011;43531;52.152;6.366;2022-11-15T01:33:50;27.85;;;18.90;;
57697;SDS011;43531;52.152;6.366;2022-11-15T01:34:40;31.50;;;17.30;;
57697;SDS011;43531;52.152;6.366;2022-11-15T01:35:30;26.77;;;16.77;;
57697;SDS011;43531;52.152;6.366;2022-11-15T01:36:21;28.98;;;15.80;;
57697;SDS011;43531;52.152;6.366;2022-11-15T01:37:12;26.33;;;15.90;;
57697;SDS011;43531;52.152;6.366;2022-11-15T01:38:02;28.45;;;17.30;;
57697;SDS011;43531;52.152;6.366;2022-11-15T01:38:54;30.08;;;18.33;;
57697;SDS011;43531;52.152;6.366;2022-11-15T01:39:45;29.55;;;17.65;;
57697;SDS011;43531;52.152;6.366;2022-11-15T01:40:35;25.75;;;15.63;;
57697;SDS011;43531;52.152;6.366;2022-11-15T01:41:26;24.23;;;16.80;;
57697;SDS011;43531;52.152;6.366;2022-11-15T01:42:19;29.60;;;17.13;;
57697;SDS011;43531;52.152;6.366;2022-11-15T01:43:22;24.00;;;16.80;;
57697;SDS011;43531;52.152;6.366;2022-11-15T01:44:37;29.38;;;16.17;;
57697;SDS011;43531;52.152;6.366;2022-11-15T01:45:30;26.27;;;15.00;;
57697;SDS011;43531;52.152;6.366;2022-11-15T01:46:24;30.50;;;17.35;;
57697;SDS011;43531;52.152;6.366;2022-11-15T01:47:24;25.48;;;16.73;;
57697;SDS011;43531;52.152;6.366;2022-11-15T01:48:18;28.60;;;17.35;;
57697;SDS011;43531;52.152;6.366;2022-11-15T01:49:13;25.05;;;16.60;;
57697;SDS011;43531;52.152;6.366;2022-11-15T01:50:06;25.80;;;17.00;;
57697;SDS011;43531;52.152;6.366;2022-11-15T01:50:59;25.27;;;17.77;;
57697;SDS011;43531;52.152;6.366;2022-11-15T01:51:53;29.35;;;17.52;;
57697;SDS011;43531;52.152;6.366;2022-11-15T01:52:43;28.88;;;17.55;;
57697;SDS011;43531;52.152;6.366;2022-11-15T01:53:34;34.05;;;20.90;;
57697;SDS011;43531;52.152;6.366;2022-11-15T01:54:26;29.88;;;18.35;;
57697;SDS011;43531;52.152;6.366;2022-11-15T01:55:20;31.58;;;19.75;;
57697;SDS011;43531;52.152;6.366;2022-11-15T01:56:13;27.52;;;17.75;;
57697;SDS011;43531;52.152;6.366;2022-11-15T01:57:07;29.27;;;19.05;;
57697;SDS011;43531;52.152;6.366;2022-11-15T01:57:59;27.83;;;18.92;;
57697;SDS011;43531;52.152;6.366;2022-11-15T01:58:52;30.85;;;16.25;;
57697;SDS011;43531;52.152;6.366;2022-11-15T01:59:43;21.92;;;17.83;;
57697;SDS011;43531;52.152;6.366;2022-11-15T02:00:34;32.85;;;19.10;;
57697;SDS011;43531;52.152;6.366;2022-11-15T02:01:25;23.15;;;16.65;;
57697;SDS011;43531;52.152;6.366;2022-11-15T02:02:20;35.75;;;18.30;;
57697;SDS011;43531;52.152;6.366;2022-11-15T02:03:10;26.70;;;16.80;;
57697;SDS011;43531;52.152;6.366;2022-11-15T02:04:02;27.70;;;16.98;;
57697;SDS011;43531;52.152;6.366;2022-11-15T02:04:55;28.50;;;18.70;;
57697;SDS011;43531;52.152;6.366;2022-11-15T02:05:45;26.20;;;18.40;;
57697;SDS011;43531;52.152;6.366;2022-11-15T02:06:35;26.05;;;17.90;;
57697;SDS011;43531;52.152;6.366;2022-11-15T02:07:25;30.35;;;19.00;;
57697;SDS011;43531;52.152;6.366;2022-11-15T02:08:16;25.13;;;17.60;;
57697;SDS011;43531;52.152;6.366;2022-11-15T02:09:10;25.23;;;18.23;;
57697;SDS011;43531;52.152;6.366;2022-11-15T02:10:11;31.30;;;19.80;;
57697;SDS011;43531;52.152;6.366;2022-11-15T02:11:11;31.70;;;20.88;;
57697;SDS011;43531;52.152;6.366;2022-11-15T02:12:01;31.25;;;19.08;;
57697;SDS011;43531;52.152;6.366;2022-11-15T02:12:52;29.85;;;18.95;;
57697;SDS011;43531;52.152;6.366;2022-11-15T02:13:42;29.63;;;18.75;;
57697;SDS011;43531;52.152;6.366;2022-11-15T02:14:33;24.42;;;18.60;;
57697;SDS011;43531;52.152;6.366;2022-11-15T02:15:24;28.55;;;18.75;;
57697;SDS011;43531;52.152;6.366;2022-11-15T02:16:25;29.08;;;18.90;;
57697;SDS011;43531;52.152;6.366;2022-11-15T02:18:30;35.22;;;22.33;;
57697;SDS011;43531;52.152;6.366;2022-11-15T02:21:37;30.08;;;19.63;;
57697;SDS011;43531;52.152;6.366;2022-11-15T02:22:39;29.85;;;17.80;;
57697;SDS011;43531;52.152;6.366;2022-11-15T02:25:30;26.42;;;18.02;;
57697;SDS011;43531;52.152;6.366;2022-11-15T02:29:02;25.63;;;17.95;;
57697;SDS011;43531;52.152;6.366;2022-11-15T02:32:23;30.60;;;19.05;;
57697;SDS011;43531;52.152;6.366;2022-11-15T02:37:06;29.15;;;18.20;;
57697;SDS011;43531;52.152;6.366;2022-11-15T02:38:20;28.50;;;19.13;;
57697;SDS011;43531;52.152;6.366;2022-11-15T02:39:20;28.58;;;18.20;;
57697;SDS011;43531;52.152;6.366;2022-11-15T02:40:23;36.80;;;20.33;;
57697;SDS011;43531;52.152;6.366;2022-11-15T02:41:20;27.23;;;18.48;;
57697;SDS011;43531;52.152;6.366;2022-11-15T02:42:14;34.38;;;19.35;;
57697;SDS011;43531;52.152;6.366;2022-11-15T02:43:42;23.90;;;17.45;;
57697;SDS011;43531;52.152;6.366;2022-11-15T02:44:47;30.33;;;17.83;;
57697;SDS011;43531;52.152;6.366;2022-11-15T02:45:46;26.70;;;18.23;;
57697;SDS011;43531;52.152;6.366;2022-11-15T02:46:40;35.20;;;20.08;;
57697;SDS011;43531;52.152;6.366;2022-11-15T02:47:50;24.35;;;18.02;;
57697;SDS011;43531;52.152;6.366;2022-11-15T02:48:42;30.63;;;18.98;;
57697;SDS011;43531;52.152;6.366;2022-11-15T02:49:33;30.77;;;18.35;;
57697;SDS011;43531;52.152;6.366;2022-11-15T02:50:25;27.30;;;18.50;;
57697;SDS011;43531;52.152;6.366;2022-11-15T02:51:17;34.67;;;18.65;;
57697;SDS011;43531;52.152;6.366;2022-11-15T02:52:08;30.63;;;18.45;;
57697;SDS011;43531;52.152;6.366;2022-11-15T02:52:58;28.75;;;17.80;;
57697;SDS011;43531;52.152;6.366;2022-11-15T02:53:48;29.35;;;17.63;;
57697;SDS011;43531;52.152;6.366;2022-11-15T02:54:38;31.05;;;18.65;;
57697;SDS011;43531;52.152;6.366;2022-11-15T02:55:29;31.88;;;17.92;;
57697;SDS011;43531;52.152;6.366;2022-11-15T02:56:21;30.08;;;16.48;;
57697;SDS011;43531;52.152;6.366;2022-11-15T02:57:12;27.10;;;18.23;;
57697;SDS011;43531;52.152;6.366;2022-11-15T02:59:13;26.95;;;17.73;;
57697;SDS011;43531;52.152;6.366;2022-11-15T03:00:19;29.20;;;18.30;;
57697;SDS011;43531;52.152;6.366;2022-11-15T03:02:22;25.67;;;17.45;;
57697;SDS011;43531;52.152;6.366;2022-11-15T03:05:43;27.77;;;16.92;;
57697;SDS011;43531;52.152;6.366;2022-11-15T03:06:42;27.90;;;18.25;;
57697;SDS011;43531;52.152;6.366;2022-11-15T03:09:02;25.92;;;16.80;;
57697;SDS011;43531;52.152;6.366;2022-11-15T03:09:59;38.33;;;17.98;;
57697;SDS011;43531;52.152;6.366;2022-11-15T03:12:24;26.13;;;16.38;;
57697;SDS011;43531;52.152;6.366;2022-11-15T03:14:30;27.20;;;16.75;;
57697;SDS011;43531;52.152;6.366;2022-11-15T03:15:27;25.08;;;16.80;;
57697;SDS011;43531;52.152;6.366;2022-11-15T03:17:16;25.77;;;17.25;;
57697;SDS011;43531;52.152;6.366;2022-11-15T03:18:33;28.10;;;17.48;;
57697;SDS011;43531;52.152;6.366;2022-11-15T03:20:45;24.88;;;17.02;;
57697;SDS011;43531;52.152;6.366;2022-11-15T03:22:27;24.50;;;16.40;;
57697;SDS011;43531;52.152;6.366;2022-11-15T03:23:19;28.33;;;18.77;;
57697;SDS011;43531;52.152;6.366;2022-11-15T03:24:09;31.30;;;17.23;;
57697;SDS011;43531;52.152;6.366;2022-11-15T03:25:00;29.63;;;17.08;;
57697;SDS011;43531;52.152;6.366;2022-11-15T03:25:53;35.78;;;17.85;;
57697;SDS011;43531;52.152;6.366;2022-11-15T03:27:36;23.42;;;14.70;;
57697;SDS011;43531;52.152;6.366;2022-11-15T03:28:30;28.95;;;17.15;;
57697;SDS011;43531;52.152;6.366;2022-11-15T03:29:24;26.65;;;16.33;;
57697;SDS011;43531;52.152;6.366;2022-11-15T03:30:21;27.00;;;18.05;;
57697;SDS011;43531;52.152;6.366;2022-11-15T03:31:11;28.30;;;16.38;;
57697;SDS011;43531;52.152;6.366;2022-11-15T03:32:23;25.55;;;17.35;;
57697;SDS011;43531;52.152;6.366;2022-11-15T03:33:15;29.80;;;18.05;;
57697;SDS011;43531;52.152;6.366;2022-11-15T03:34:06;30.05;;;17.13;;
57697;SDS011;43531;52.152;6.366;2022-11-15T03:35:57;27.58;;;17.83;;
57697;SDS011;43531;52.152;6.366;2022-11-15T03:36:47;26.73;;;17.00;;
57697;SDS011;43531;52.152;6.366;2022-11-15T03:37:46;26.15;;;16.90;;
57697;SDS011;43531;52.152;6.366;2022-11-15T03:38:43;25.27;;;15.93;;
57697;SDS011;43531;52.152;6.366;2022-11-15T03:40:26;22.55;;;15.00;;
57697;SDS011;43531;52.152;6.366;2022-11-15T03:41:24;24.45;;;16.50;;
57697;SDS011;43531;52.152;6.366;2022-11-15T03:43:29;24.52;;;15.75;;
57697;SDS011;43531;52.152;6.366;2022-11-15T03:44:38;23.23;;;15.52;;
57697;SDS011;43531;52.152;6.366;2022-11-15T03:45:33;32.92;;;17.42;;
57697;SDS011;43531;52.152;6.366;2022-11-15T03:46:33;29.05;;;17.33;;
57697;SDS011;43531;52.152;6.366;2022-11-15T03:48:46;36.70;;;17.95;;
57697;SDS011;43531;52.152;6.366;2022-11-15T03:49:44;25.73;;;16.90;;
57697;SDS011;43531;52.152;6.366;2022-11-15T03:50:36;33.28;;;19.30;;
57697;SDS011;43531;52.152;6.366;2022-11-15T03:51:26;28.13;;;18.30;;
57697;SDS011;43531;52.152;6.366;2022-11-15T03:52:19;28.63;;;17.70;;
57697;SDS011;43531;52.152;6.366;2022-11-15T03:53:11;24.85;;;16.75;;
57697;SDS011;43531;52.152;6.366;2022-11-15T03:54:03;24.40;;;16.38;;
57697;SDS011;43531;52.152;6.366;2022-11-15T03:54:55;23.90;;;16.83;;
57697;SDS011;43531;52.152;6.366;2022-11-15T03:55:45;29.45;;;17.70;;
57697;SDS011;43531;52.152;6.366;2022-11-15T03:56:35;26.80;;;18.58;;
57697;SDS011;43531;52.152;6.366;2022-11-15T03:57:25;26.63;;;17.70;;
57697;SDS011;43531;52.152;6.366;2022-11-15T03:58:15;28.73;;;16.70;;
57697;SDS011;43531;52.152;6.366;2022-11-15T03:59:05;25.33;;;16.65;;
57697;SDS011;43531;52.152;6.366;2022-11-15T03:59:55;27.92;;;14.07;;
57697;SDS011;43531;52.152;6.366;2022-11-15T04:00:45;30.35;;;18.25;;
57697;SDS011;43531;52.152;6.366;2022-11-15T04:01:35;24.20;;;17.55;;
57697;SDS011;43531;52.152;6.366;2022-11-15T04:02:26;24.05;;;16.80;;
57697;SDS011;43531;52.152;6.366;2022-11-15T04:03:17;24.80;;;16.83;;
57697;SDS011;43531;52.152;6.366;2022-11-15T04:04:07;22.42;;;16.38;;
57697;SDS011;43531;52.152;6.366;2022-11-15T04:04:57;24.10;;;18.13;;
57697;SDS011;43531;52.152;6.366;2022-11-15T04:05:47;23.52;;;17.35;;
57697;SDS011;43531;52.152;6.366;2022-11-15T04:06:37;27.23;;;17.63;;
57697;SDS011;43531;52.152;6.366;2022-11-15T04:07:27;25.52;;;17.02;;
57697;SDS011;43531;52.152;6.366;2022-11-15T04:08:18;25.65;;;16.80;;
57697;SDS011;43531;52.152;6.366;2022-11-15T04:09:08;30.05;;;17.00;;
57697;SDS011;43531;52.152;6.366;2022-11-15T04:09:58;30.35;;;16.58;;
57697;SDS011;43531;52.152;6.366;2022-11-15T04:10:55;25.33;;;18.08;;
57697;SDS011;43531;52.152;6.366;2022-11-15T04:11:45;25.40;;;17.15;;
57697;SDS011;43531;52.152;6.366;2022-11-15T04:12:36;24.58;;;17.15;;
57697;SDS011;43531;52.152;6.366;2022-11-15T04:13:29;21.75;;;16.65;;
57697;SDS011;43531;52.152;6.366;2022-11-15T04:14:19;28.55;;;16.25;;
57697;SDS011;43531;52.152;6.366;2022-11-15T04:15:10;27.85;;;17.58;;
57697;SDS011;43531;52.152;6.366;2022-11-15T04:16:01;22.73;;;16.35;;
57697;SDS011;43531;52.152;6.366;2022-11-15T04:16:51;24.05;;;17.42;;
57697;SDS011;43531;52.152;6.366;2022-11-15T04:17:48;27.67;;;16.58;;
57697;SDS011;43531;52.152;6.366;2022-11-15T04:18:42;22.25;;;15.93;;
57697;SDS011;43531;52.152;6.366;2022-11-15T04:19:32;24.80;;;16.55;;
57697;SDS011;43531;52.152;6.366;2022-11-15T04:20:41;22.42;;;17.42;;
57697;SDS011;43531;52.152;6.366;2022-11-15T04:21:50;25.42;;;17.13;;
57697;SDS011;43531;52.152;6.366;2022-11-15T04:22:59;28.38;;;16.23;;
57697;SDS011;43531;52.152;6.366;2022-11-15T04:24:09;23.95;;;16.40;;
57697;SDS011;43531;52.152;6.366;2022-11-15T04:25:02;31.23;;;18.55;;
57697;SDS011;43531;52.152;6.366;2022-11-15T04:25:53;25.23;;;17.08;;
57697;SDS011;43531;52.152;6.366;2022-11-15T04:26:45;28.75;;;17.65;;
57697;SDS011;43531;52.152;6.366;2022-11-15T04:27:35;24.52;;;16.98;;
57697;SDS011;43531;52.152;6.366;2022-11-15T04:28:26;25.67;;;17.25;;
57697;SDS011;43531;52.152;6.366;2022-11-15T04:29:16;22.98;;;15.68;;
57697;SDS011;43531;52.152;6.366;2022-11-15T04:30:24;24.10;;;15.55;;
57697;SDS011;43531;52.152;6.366;2022-11-15T04:31:14;23.77;;;17.13;;
57697;SDS011;43531;52.152;6.366;2022-11-15T04:32:04;21.33;;;16.20;;
57697;SDS011;43531;52.152;6.366;2022-11-15T04:32:55;28.88;;;16.83;;
57697;SDS011;43531;52.152;6.366;2022-11-15T04:33:45;27.33;;;18.17;;
57697;SDS011;43531;52.152;6.366;2022-11-15T04:34:35;25.48;;;15.55;;
57697;SDS011;43531;52.152;6.366;2022-11-15T04:35:25;23.38;;;16.27;;
57697;SDS011;43531;52.152;6.366;2022-11-15T04:36:15;28.63;;;16.95;;
57697;SDS011;43531;52.152;6.366;2022-11-15T04:37:24;23.75;;;15.45;;
57697;SDS011;43531;52.152;6.366;2022-11-15T04:38:14;22.17;;;17.10;;
57697;SDS011;43531;52.152;6.366;2022-11-15T04:39:05;24.75;;;16.13;;
57697;SDS011;43531;52.152;6.366;2022-11-15T04:39:54;25.05;;;18.30;;
57697;SDS011;43531;52.152;6.366;2022-11-15T04:40:44;23.40;;;17.50;;
57697;SDS011;43531;52.152;6.366;2022-11-15T04:41:34;29.10;;;16.83;;
57697;SDS011;43531;52.152;6.366;2022-11-15T04:42:24;25.55;;;18.05;;
57697;SDS011;43531;52.152;6.366;2022-11-15T04:43:15;26.25;;;16.50;;
57697;SDS011;43531;52.152;6.366;2022-11-15T04:44:04;25.55;;;17.02;;
57697;SDS011;43531;52.152;6.366;2022-11-15T04:44:55;27.73;;;16.08;;
57697;SDS011;43531;52.152;6.366;2022-11-15T04:45:45;21.50;;;14.88;;
57697;SDS011;43531;52.152;6.366;2022-11-15T04:46:35;22.23;;;15.20;;
57697;SDS011;43531;52.152;6.366;2022-11-15T04:47:26;20.98;;;15.68;;
57697;SDS011;43531;52.152;6.366;2022-11-15T04:48:17;25.65;;;15.55;;
57697;SDS011;43531;52.152;6.366;2022-11-15T04:49:07;20.33;;;15.52;;
57697;SDS011;43531;52.152;6.366;2022-11-15T04:49:57;25.20;;;15.95;;
57697;SDS011;43531;52.152;6.366;2022-11-15T04:50:48;33.83;;;18.55;;
57697;SDS011;43531;52.152;6.366;2022-11-15T04:51:38;25.13;;;17.00;;
57697;SDS011;43531;52.152;6.366;2022-11-15T04:52:28;22.52;;;16.65;;
57697;SDS011;43531;52.152;6.366;2022-11-15T04:53:18;20.67;;;15.55;;
57697;SDS011;43531;52.152;6.366;2022-11-15T04:54:08;29.75;;;17.15;;
57697;SDS011;43531;52.152;6.366;2022-11-15T04:54:58;24.13;;;16.02;;
57697;SDS011;43531;52.152;6.366;2022-11-15T04:55:56;26.33;;;16.25;;
57697;SDS011;43531;52.152;6.366;2022-11-15T04:56:46;22.42;;;15.30;;
57697;SDS011;43531;52.152;6.366;2022-11-15T04:57:37;24.05;;;16.73;;
57697;SDS011;43531;52.152;6.366;2022-11-15T04:58:28;26.10;;;17.10;;
57697;SDS011;43531;52.152;6.366;2022-11-15T04:59:18;20.00;;;15.73;;
57697;SDS011;43531;52.152;6.366;2022-11-15T05:00:13;23.67;;;16.40;;
57697;SDS011;43531;52.152;6.366;2022-11-15T05:01:07;21.52;;;15.82;;
57697;SDS011;43531;52.152;6.366;2022-11-15T05:01:58;26.30;;;16.08;;
57697;SDS011;43531;52.152;6.366;2022-11-15T05:02:48;28.60;;;15.90;;
57697;SDS011;43531;52.152;6.366;2022-11-15T05:03:57;22.48;;;16.65;;
57697;SDS011;43531;52.152;6.366;2022-11-15T05:05:07;25.80;;;15.82;;
57697;SDS011;43531;52.152;6.366;2022-11-15T05:05:58;27.48;;;18.05;;
57697;SDS011;43531;52.152;6.366;2022-11-15T05:06:49;21.42;;;16.35;;
57697;SDS011;43531;52.152;6.366;2022-11-15T05:07:40;20.02;;;15.00;;
57697;SDS011;43531;52.152;6.366;2022-11-15T05:08:30;23.92;;;16.52;;
57697;SDS011;43531;52.152;6.366;2022-11-15T05:09:20;23.48;;;17.05;;
57697;SDS011;43531;52.152;6.366;2022-11-15T05:10:11;26.90;;;17.48;;
57697;SDS011;43531;52.152;6.366;2022-11-15T05:11:01;24.88;;;16.70;;
57697;SDS011;43531;52.152;6.366;2022-11-15T05:11:51;20.63;;;16.90;;
57697;SDS011;43531;52.152;6.366;2022-11-15T05:12:41;23.80;;;17.80;;
57697;SDS011;43531;52.152;6.366;2022-11-15T05:13:31;23.90;;;16.52;;
57697;SDS011;43531;52.152;6.366;2022-11-15T05:14:21;20.42;;;15.80;;
57697;SDS011;43531;52.152;6.366;2022-11-15T05:15:12;23.13;;;15.98;;
57697;SDS011;43531;52.152;6.366;2022-11-15T05:16:02;21.55;;;16.58;;
57697;SDS011;43531;52.152;6.366;2022-11-15T05:16:51;26.45;;;16.17;;
57697;SDS011;43531;52.152;6.366;2022-11-15T05:17:42;24.02;;;16.95;;
57697;SDS011;43531;52.152;6.366;2022-11-15T05:18:31;23.10;;;16.80;;
57697;SDS011;43531;52.152;6.366;2022-11-15T05:19:22;27.58;;;16.80;;
57697;SDS011;43531;52.152;6.366;2022-11-15T05:20:13;23.98;;;16.33;;
57697;SDS011;43531;52.152;6.366;2022-11-15T05:21:10;22.52;;;16.90;;
57697;SDS011;43531;52.152;6.366;2022-11-15T05:22:01;21.27;;;15.50;;
57697;SDS011;43531;52.152;6.366;2022-11-15T05:22:52;25.38;;;16.65;;
57697;SDS011;43531;52.152;6.366;2022-11-15T05:23:43;27.13;;;17.15;;
57697;SDS011;43531;52.152;6.366;2022-11-15T05:24:34;23.23;;;15.88;;
57697;SDS011;43531;52.152;6.366;2022-11-15T05:25:24;29.20;;;16.20;;
57697;SDS011;43531;52.152;6.366;2022-11-15T05:26:15;28.55;;;18.10;;
57697;SDS011;43531;52.152;6.366;2022-11-15T05:27:07;26.63;;;16.92;;
57697;SDS011;43531;52.152;6.366;2022-11-15T05:27:57;26.35;;;17.40;;
57697;SDS011;43531;52.152;6.366;2022-11-15T05:28:51;27.33;;;16.58;;
57697;SDS011;43531;52.152;6.366;2022-11-15T05:29:42;25.25;;;16.00;;
57697;SDS011;43531;52.152;6.366;2022-11-15T05:30:33;22.15;;;16.10;;
57697;SDS011;43531;52.152;6.366;2022-11-15T05:31:23;25.42;;;16.05;;
57697;SDS011;43531;52.152;6.366;2022-11-15T05:32:14;22.17;;;16.67;;
57697;SDS011;43531;52.152;6.366;2022-11-15T05:33:04;32.10;;;17.10;;
57697;SDS011;43531;52.152;6.366;2022-11-15T05:33:55;24.58;;;16.33;;
57697;SDS011;43531;52.152;6.366;2022-11-15T05:34:46;29.40;;;18.38;;
57697;SDS011;43531;52.152;6.366;2022-11-15T05:35:38;24.40;;;17.10;;
57697;SDS011;43531;52.152;6.366;2022-11-15T05:36:40;28.00;;;16.88;;
57697;SDS011;43531;52.152;6.366;2022-11-15T05:37:32;20.55;;;15.90;;
57697;SDS011;43531;52.152;6.366;2022-11-15T05:38:23;25.35;;;17.20;;
57697;SDS011;43531;52.152;6.366;2022-11-15T05:39:13;20.88;;;15.05;;